Time;durP1;ratioP1;P1;durP2;ratioP2;P2;SDS_P1;SDS_P2;PMS_P1;PMS_P2;Temp;Humidity;BMP_temperature;BMP_pressure;BME280_temperature;BME280_humidity;BME280_pressure;Samples;Min_cycle;Max_cycle;Signal;HPM_P1;HPM_P2
2022/06/20 00:01:31;;;;;;;;;;;;;;;22.63;100.00;97625.28;5132450;28;20401;-53
2022/06/20 00:03:57;;;;;;;;;;;;;;;22.36;100.00;97619.97;5132409;28;19927;-51
2022/06/20 00:06:24;;;;;;;;;;;;;;;22.14;100.00;97673.38;5132311;28;20356;-52
2022/06/20 00:08:51;;;;;;;;;;;;;;;22.37;100.00;97647.44;5132594;28;19932;-52
2022/06/20 00:11:18;;;;;;;;;;;;;;;22.50;100.00;97649.94;5132536;28;20335;-53
2022/06/20 00:13:46;;;;;;;;;;;;;;;22.50;100.00;97611.63;5131138;27;20389;-50
2022/06/20 00:16:14;;;;;;;;;;;;;;;22.43;100.00;97609.22;5132116;28;19941;-53
2022/06/20 00:18:40;;;;;;;;;;;;;;;22.56;100.00;97606.13;5132401;28;19974;-54
2022/06/20 00:21:06;;;;;;;;;;;;;;;22.41;100.00;97620.09;5132124;28;20000;-54
2022/06/20 00:23:32;;;;;;;;;;;;;;;22.38;100.00;97601.50;5132156;28;19927;-52
2022/06/20 00:25:58;;;;;;;;;;;;;;;22.31;100.00;97625.00;5131991;28;19949;-54
2022/06/20 00:28:24;;;;;;;;;;;;;;;22.38;100.00;97625.88;5131981;28;19928;-53
2022/06/20 00:30:50;;;;;;;;;;;;;;;22.39;100.00;97599.47;5132253;28;19935;-54
2022/06/20 00:33:16;;;;;;;;;;;;;;;21.97;100.00;97643.16;5132030;28;19927;-54
2022/06/20 00:35:42;;;;;;;;;;;;;;;22.30;100.00;97631.84;5132360;28;19927;-51
2022/06/20 00:38:14;;;;;;;;;;;;;;;22.37;100.00;97586.03;5132032;28;19934;-53
2022/06/20 00:40:43;;;;;;;;;;;;;;;22.32;100.00;97578.31;5132101;28;19932;-55
2022/06/20 00:43:11;;;;;;;;;;;;;;;22.16;100.00;97631.81;5131786;28;19934;-54
2022/06/20 00:45:39;;;;;;;;;;;;;;;22.27;100.00;97637.63;5131668;28;19928;-53
2022/06/20 00:48:09;;;;;;;;;;;;;;;22.16;100.00;97648.56;5131577;28;20382;-53
2022/06/20 00:50:36;;;;;;;;;;;;;;;22.19;100.00;97704.22;5131958;28;19927;-51
2022/06/20 00:53:05;;;;;;;;;;;;;;;22.11;100.00;97716.19;5131638;28;19978;-54
2022/06/20 00:55:34;;;;;;;;;;;;;;;22.10;100.00;97723.81;5131629;28;19927;-53
2022/06/20 00:58:02;;;;;;;;;;;;;;;22.04;100.00;97723.69;5131627;28;19938;-55
2022/06/20 01:00:34;;;;;;;;;;;;;;;21.98;100.00;97773.03;5131362;28;19928;-53
2022/06/20 01:03:03;;;;;;;;;;;;;;;21.84;100.00;97757.78;5131804;28;20396;-52
2022/06/20 01:05:32;;;;;;;;;;;;;;;21.88;100.00;97771.56;5131562;28;19975;-51
2022/06/20 01:08:02;;;;;;;;;;;;;;;21.43;100.00;97734.34;5131246;28;20421;-53
2022/06/20 01:10:30;;;;;;;;;;;;;;;20.76;100.00;97484.84;5131444;28;19935;-52
2022/06/20 01:12:59;;;;;;;;;;;;;;;20.59;100.00;97387.84;5131432;28;20382;-53
2022/06/20 01:15:29;;;;;;;;;;;;;;;20.09;100.00;97364.47;5131243;28;20390;-51
2022/06/20 01:17:55;;;;;;;;;;;;;;;19.89;100.00;97449.28;5131450;28;19966;-51
2022/06/20 01:20:23;;;;;;;;;;;;;;;19.56;100.00;97499.22;5131235;28;20418;-50
2022/06/20 01:22:55;;;;;;;;;;;;;;;19.35;100.00;97569.63;5131250;28;20394;-49
2022/06/20 01:25:36;;;;;;;;;;;;;;;19.30;100.00;97664.72;5130751;27;19927;-50
2022/06/20 01:28:06;;;;;;;;;;;;;;;19.17;100.00;97720.41;5127150;28;20022;-53
2022/06/20 01:30:34;;;;;;;;;;;;;;;18.94;100.00;97786.31;5131405;28;20416;-51
2022/06/20 01:33:00;;;;;;;;;;;;;;;18.98;100.00;97781.41;5131221;28;20060;-50
2022/06/20 01:38:09;;;;;;;;;;;;;;;18.73;100.00;97860.09;5096617;28;19927;-51
2022/06/20 01:40:35;;;;;;;;;;;;;;;18.72;100.00;97910.50;5131169;28;19995;-50
2022/06/20 01:43:01;;;;;;;;;;;;;;;18.58;100.00;97881.97;5130863;28;20389;-52
2022/06/20 01:48:13;;;;;;;;;;;;;;;18.55;100.00;97932.84;5131018;28;20023;-50
2022/06/20 01:50:40;;;;;;;;;;;;;;;18.37;100.00;97967.97;5130739;28;20405;-51
2022/06/20 01:53:07;;;;;;;;;;;;;;;18.34;100.00;98058.41;5130818;28;19933;-51
2022/06/20 01:55:34;;;;;;;;;;;;;;;18.11;100.00;98128.84;5130704;28;19931;-52
2022/06/20 01:58:06;;;;;;;;;;;;;;;18.14;100.00;98174.34;5131125;28;19936;-50
2022/06/20 02:00:34;;;;;;;;;;;;;;;18.18;100.00;98181.34;5130570;28;19952;-49
2022/06/20 02:03:01;;;;;;;;;;;;;;;18.16;100.00;98164.38;5131072;28;19931;-50
2022/06/20 02:05:30;;;;;;;;;;;;;;;18.17;100.00;98177.03;5130637;28;19931;-53
2022/06/20 02:07:57;;;;;;;;;;;;;;;18.02;100.00;98195.25;5130903;28;20429;-50
2022/06/20 02:10:24;;;;;;;;;;;;;;;18.15;100.00;98157.25;5130718;28;19927;-50
2022/06/20 02:12:51;;;;;;;;;;;;;;;18.20;100.00;98151.19;5130626;28;20025;-50
2022/06/20 02:15:18;;;;;;;;;;;;;;;18.17;100.00;98179.78;5130471;28;19935;-49
2022/06/20 02:17:45;;;;;;;;;;;;;;;18.23;100.00;98161.38;5130497;28;19927;-51
2022/06/20 02:20:13;;;;;;;;;;;;;;;18.26;100.00;98118.09;5130477;28;19927;-53
2022/06/20 02:22:41;;;;;;;;;;;;;;;18.36;100.00;98080.94;5130489;28;19932;-52
2022/06/20 02:25:08;;;;;;;;;;;;;;;18.28;100.00;98079.59;5130532;28;19927;-53
2022/06/20 02:27:37;;;;;;;;;;;;;;;18.37;100.00;98087.28;5130454;28;19959;-50
2022/06/20 02:30:04;;;;;;;;;;;;;;;18.35;100.00;98137.66;5130607;28;19927;-53
2022/06/20 02:32:33;;;;;;;;;;;;;;;18.06;100.00;98141.28;5130340;28;19931;-52
2022/06/20 02:34:59;;;;;;;;;;;;;;;18.39;100.00;98138.31;5130303;28;20308;-53
2022/06/20 02:37:26;;;;;;;;;;;;;;;18.25;100.00;98119.31;5131678;27;19931;-51
2022/06/20 02:39:53;;;;;;;;;;;;;;;18.27;100.00;98119.66;5133798;28;19927;-49
2022/06/20 02:42:22;;;;;;;;;;;;;;;18.42;100.00;98101.34;5133871;28;19927;-53
2022/06/20 02:44:48;;;;;;;;;;;;;;;18.62;100.00;98055.94;5133922;28;19927;-49
2022/06/20 02:47:15;;;;;;;;;;;;;;;18.84;100.00;97979.09;5133682;28;19927;-52
2022/06/20 02:49:42;;;;;;;;;;;;;;;19.01;100.00;97918.59;5133641;28;19949;-53
2022/06/20 02:52:13;;;;;;;;;;;;;;;19.04;100.00;97898.25;5133573;28;19989;-53
2022/06/20 02:54:40;;;;;;;;;;;;;;;19.29;100.00;97872.31;5133495;28;20465;-53
2022/06/20 02:57:11;;;;;;;;;;;;;;;19.24;100.00;97876.47;5133937;28;19927;-52
2022/06/20 02:59:40;;;;;;;;;;;;;;;19.20;100.00;97850.06;5133363;28;19927;-51
2022/06/20 03:02:08;;;;;;;;;;;;;;;19.03;100.00;97905.81;5133530;28;19953;-51
2022/06/20 03:04:35;;;;;;;;;;;;;;;19.22;100.00;97887.25;5133268;28;20406;-50
2022/06/20 03:07:03;;;;;;;;;;;;;;;19.18;100.00;97858.06;5133350;28;19927;-51
2022/06/20 03:09:31;;;;;;;;;;;;;;;19.08;100.00;97890.56;5133389;28;19931;-53
2022/06/20 03:11:57;;;;;;;;;;;;;;;19.22;100.00;97912.25;5133365;28;19927;-53
2022/06/20 03:14:25;;;;;;;;;;;;;;;19.27;100.00;97866.44;5133232;28;19928;-53
2022/06/20 03:16:51;;;;;;;;;;;;;;;19.44;100.00;97872.56;5133138;28;20065;-52
2022/06/20 03:19:21;;;;;;;;;;;;;;;19.38;100.00;97825.13;5133204;28;19932;-52
2022/06/20 03:21:48;;;;;;;;;;;;;;;19.63;100.00;97778.91;5132995;28;19927;-53
2022/06/20 03:24:16;;;;;;;;;;;;;;;19.63;100.00;97739.97;5133346;28;19927;-51
2022/06/20 03:26:42;;;;;;;;;;;;;;;19.57;100.00;97780.72;5132940;28;19927;-52
2022/06/20 03:29:11;;;;;;;;;;;;;;;19.77;100.00;97808.16;5133151;28;19932;-50
2022/06/20 03:31:36;;;;;;;;;;;;;;;20.27;100.00;97842.22;5132883;28;19927;-52
2022/06/20 03:34:02;;;;;;;;;;;;;;;20.14;100.00;97809.75;5132943;28;19934;-51
2022/06/20 03:36:28;;;;;;;;;;;;;;;20.26;100.00;97824.78;5132988;28;20097;-51
2022/06/20 03:38:55;;;;;;;;;;;;;;;20.45;100.00;97829.06;5132820;28;19927;-50
2022/06/20 03:41:23;;;;;;;;;;;;;;;21.25;100.00;97664.72;5132900;28;19967;-52
2022/06/20 03:43:50;;;;;;;;;;;;;;;21.74;100.00;97504.50;5132830;28;19932;-51
2022/06/20 03:46:18;;;;;;;;;;;;;;;22.05;100.00;97418.28;5132908;28;19950;-51
2022/06/20 03:48:48;;;;;;;;;;;;;;;22.19;100.00;97355.34;5132431;27;19986;-52
2022/06/20 03:51:17;;;;;;;;;;;;;;;22.64;100.00;97288.09;5133003;28;19927;-54
2022/06/20 03:53:45;;;;;;;;;;;;;;;23.02;100.00;97254.22;5132796;28;19980;-51
2022/06/20 03:56:13;;;;;;;;;;;;;;;23.01;100.00;97221.91;5132458;28;19927;-51
2022/06/20 03:58:42;;;;;;;;;;;;;;;22.69;100.00;97287.38;5132732;28;19935;-55
2022/06/20 04:01:11;;;;;;;;;;;;;;;22.64;100.00;97232.25;5132578;28;19928;-54
2022/06/20 04:03:40;;;;;;;;;;;;;;;22.99;100.00;97243.22;5132755;28;19935;-53
2022/06/20 04:06:09;;;;;;;;;;;;;;;23.25;100.00;97145.34;5132333;28;19934;-53
2022/06/20 04:11:25;;;;;;;;;;;;;;;24.13;100.00;97050.31;5132376;28;19977;-56
2022/06/20 04:13:54;;;;;;;;;;;;;;;24.62;100.00;97034.00;5132263;28;20299;-55
2022/06/20 04:16:24;;;;;;;;;;;;;;;25.02;100.00;97032.63;5132051;28;19932;-54
2022/06/20 04:18:52;;;;;;;;;;;;;;;24.98;100.00;97031.38;5132128;28;19931;-55
2022/06/20 04:21:22;;;;;;;;;;;;;;;25.36;100.00;97038.16;5132369;28;19927;-55
2022/06/20 04:23:53;;;;;;;;;;;;;;;25.44;100.00;97035.56;5132064;28;20033;-55
2022/06/20 04:26:22;;;;;;;;;;;;;;;25.22;100.00;97039.22;5132208;28;19928;-55
2022/06/20 04:28:51;;;;;;;;;;;;;;;25.55;100.00;97036.28;5132034;28;19927;-55
2022/06/20 04:31:20;;;;;;;;;;;;;;;25.98;100.00;97032.97;5132547;28;19931;-55
2022/06/20 04:33:48;;;;;;;;;;;;;;;26.15;100.00;97029.28;5131892;28;20410;-55
2022/06/20 04:36:25;;;;;;;;;;;;;;;26.64;100.00;97029.41;5131969;28;19927;-56
2022/06/20 04:38:53;;;;;;;;;;;;;;;26.80;100.00;97039.72;5131868;28;19973;-56
2022/06/20 04:41:25;;;;;;;;;;;;;;;26.84;100.00;97031.00;5131883;28;19927;-55
2022/06/20 04:43:52;;;;;;;;;;;;;;;27.40;100.00;97033.94;5131694;28;19954;-57
2022/06/20 04:46:22;;;;;;;;;;;;;;;27.62;100.00;97049.78;5131992;28;20399;-56
2022/06/20 04:48:49;;;;;;;;;;;;;;;27.79;100.00;97049.59;5131844;28;19973;-57
2022/06/20 04:51:18;;;;;;;;;;;;;;;28.02;100.00;97071.78;5131404;28;19928;-57
2022/06/20 04:53:45;;;;;;;;;;;;;;;28.14;100.00;97070.31;5131866;28;20425;-57
2022/06/20 04:56:13;;;;;;;;;;;;;;;28.30;100.00;97093.91;5131154;28;19927;-57
2022/06/20 04:58:42;;;;;;;;;;;;;;;28.23;100.00;97086.09;5131760;28;19972;-57
2022/06/20 05:01:08;;;;;;;;;;;;;;;28.52;100.00;97113.28;5130615;27;19927;-57
2022/06/20 05:03:37;;;;;;;;;;;;;;;28.84;100.00;97121.72;5131283;28;19962;-58
2022/06/20 05:06:06;;;;;;;;;;;;;;;28.75;100.00;97133.41;5131368;28;19927;-56
2022/06/20 05:08:33;;;;;;;;;;;;;;;28.06;100.00;97128.59;5131392;28;19927;-64
2022/06/20 05:11:02;;;;;;;;;;;;;;;28.19;100.00;97173.72;5131334;28;20060;-56
2022/06/20 05:13:32;;;;;;;;;;;;;;;28.22;100.00;97169.81;5131451;28;19928;-57
2022/06/20 05:15:59;;;;;;;;;;;;;;;28.04;100.00;97193.13;5131573;28;20460;-61
2022/06/20 05:18:29;;;;;;;;;;;;;;;27.80;100.00;97171.41;5131147;28;19935;-59
2022/06/20 05:20:57;;;;;;;;;;;;;;;28.06;100.00;97168.78;5131526;28;19928;-61
2022/06/20 05:23:27;;;;;;;;;;;;;;;27.62;100.00;97172.84;5131031;28;19935;-64
2022/06/20 05:25:55;;;;;;;;;;;;;;;28.18;100.00;97194.72;5131341;28;19932;-60
2022/06/20 05:28:24;;;;;;;;;;;;;;;28.08;100.00;97188.69;5131083;28;19928;-60
2022/06/20 05:30:50;;;;;;;;;;;;;;;28.43;100.00;97198.25;5131218;28;19927;-60
2022/06/20 05:33:21;;;;;;;;;;;;;;;27.95;100.00;97197.06;5130927;28;20368;-60
2022/06/20 05:35:49;;;;;;;;;;;;;;;27.40;100.00;97132.44;5131092;28;19927;-65
2022/06/20 05:38:19;;;;;;;;;;;;;;;27.14;100.00;97118.13;5130910;28;19927;-64
2022/06/20 05:40:47;;;;;;;;;;;;;;;27.27;100.00;97086.56;5130995;28;19927;-64
2022/06/20 05:43:18;;;;;;;;;;;;;;;27.75;100.00;97111.03;5131289;28;19927;-64
2022/06/20 05:45:45;;;;;;;;;;;;;;;27.08;100.00;97145.53;5130537;28;19927;-62
2022/06/20 05:48:12;;;;;;;;;;;;;;;27.96;100.00;97136.66;5131145;28;19928;-63
2022/06/20 05:50:43;;;;;;;;;;;;;;;28.40;100.00;97164.75;5130552;28;20287;-62
2022/06/20 05:53:12;;;;;;;;;;;;;;;28.97;100.00;97193.59;5130952;28;19949;-62
2022/06/20 05:55:41;;;;;;;;;;;;;;;29.12;100.00;97243.88;5130859;28;19927;-60
2022/06/20 05:58:08;;;;;;;;;;;;;;;29.54;100.00;97240.06;5130447;28;19980;-59
2022/06/20 06:00:36;;;;;;;;;;;;;;;29.59;100.00;97258.22;5130297;28;19927;-61
2022/06/20 06:03:04;;;;;;;;;;;;;;;30.12;100.00;97285.72;5130436;28;20350;-61
2022/06/20 06:05:32;;;;;;;;;;;;;;;30.65;100.00;97286.44;5130789;28;19935;-60
2022/06/20 06:08:02;;;;;;;;;;;;;;;30.48;100.00;97334.88;5130177;28;19934;-62
2022/06/20 06:10:32;;;;;;;;;;;;;;;30.63;100.00;97344.88;5130234;28;19952;-60
2022/06/20 06:13:12;;;;;;;;;;;;;;;30.73;100.00;97345.19;5132456;28;19933;-61
2022/06/20 06:16:46;;;;;;;;;;;;;;;30.79;100.00;97295.72;5133938;28;19980;-62
2022/06/20 06:18:29;;;;;;;;;;;;;;;31.34;100.00;97343.09;5133697;28;19935;-58
2022/06/20 06:20:55;;;;;;;;;;;;;;;30.99;100.00;97415.09;5133817;28;20468;-65
2022/06/20 06:23:21;;;;;;;;;;;;;;;30.95;100.00;97378.66;5134052;28;19976;-65
2022/06/20 06:25:47;;;;;;;;;;;;;;;31.17;100.00;97381.00;5133784;28;20367;-65
2022/06/20 06:28:15;;;;;;;;;;;;;;;31.56;100.00;97398.44;5133785;28;19928;-65
2022/06/20 06:30:43;;;;;;;;;;;;;;;31.31;100.00;97383.78;5133578;28;19950;-65
2022/06/20 06:33:20;;;;;;;;;;;;;;;31.46;100.00;97377.53;5133697;28;19928;-59
2022/06/20 06:35:49;;;;;;;;;;;;;;;30.70;100.00;97463.75;5133363;28;20022;-62
2022/06/20 06:38:17;;;;;;;;;;;;;;;30.49;100.00;97499.66;5133576;28;20390;-59
2022/06/20 06:40:46;;;;;;;;;;;;;;;30.59;100.00;97466.81;5133507;28;20404;-59
2022/06/20 06:43:15;;;;;;;;;;;;;;;31.04;100.00;97510.47;5133764;28;19952;-62
2022/06/20 06:45:42;;;;;;;;;;;;;;;31.70;100.00;97419.72;5133866;28;19927;-64
2022/06/20 06:48:11;;;;;;;;;;;;;;;31.67;100.00;97403.06;5133513;28;19938;-65
2022/06/20 06:50:40;;;;;;;;;;;;;;;31.27;100.00;97411.69;5133549;28;20294;-65
2022/06/20 06:53:11;;;;;;;;;;;;;;;30.64;100.00;97386.75;5133242;28;19934;-58
2022/06/20 06:55:39;;;;;;;;;;;;;;;31.04;100.00;97405.75;5133465;28;20278;-60
2022/06/20 06:58:10;;;;;;;;;;;;;;;31.23;100.00;97431.06;5133118;28;19953;-60
2022/06/20 07:00:39;;;;;;;;;;;;;;;31.37;100.00;97438.25;5133207;28;20446;-60
2022/06/20 07:03:12;;;;;;;;;;;;;;;31.21;100.00;97462.00;5133144;28;19927;-62
2022/06/20 07:05:39;;;;;;;;;;;;;;;31.01;100.00;97384.97;5133418;28;19927;-59
2022/06/20 07:08:09;;;;;;;;;;;;;;;31.70;100.00;97424.63;5133307;28;20010;-59
2022/06/20 07:10:38;;;;;;;;;;;;;;;32.08;100.00;97433.47;5132859;28;19934;-64
2022/06/20 07:13:10;;;;;;;;;;;;;;;32.39;100.00;97477.03;5133326;28;19998;-64
2022/06/20 07:15:37;;;;;;;;;;;;;;;31.81;100.00;97475.34;5132812;28;19928;-64
2022/06/20 07:18:04;;;;;;;;;;;;;;;32.12;100.00;97425.38;5133245;28;19927;-65
2022/06/20 07:20:35;;;;;;;;;;;;;;;31.87;100.00;97482.41;5132905;28;19932;-64
2022/06/20 07:23:02;;;;;;;;;;;;;;;32.02;100.00;97475.38;5132271;27;20021;-64
2022/06/20 07:25:34;;;;;;;;;;;;;;;32.53;100.00;97457.84;5133003;28;19927;-64
2022/06/20 07:28:03;;;;;;;;;;;;;;;32.17;100.00;97449.25;5132982;28;19931;-65
2022/06/20 07:30:32;;;;;;;;;;;;;;;32.95;100.00;97484.00;5133236;28;19927;-64
2022/06/20 07:33:00;;;;;;;;;;;;;;;33.01;100.00;97456.25;5132482;28;20313;-64
2022/06/20 07:35:28;;;;;;;;;;;;;;;33.31;100.00;97510.91;5132896;28;19952;-64
2022/06/20 07:38:00;;;;;;;;;;;;;;;33.62;100.00;97489.06;5132668;28;19934;-64
2022/06/20 07:40:30;;;;;;;;;;;;;;;33.90;100.00;97516.63;5132901;28;19977;-64
2022/06/20 07:42:58;;;;;;;;;;;;;;;34.13;100.00;97530.91;5132646;28;19927;-64
2022/06/20 07:45:28;;;;;;;;;;;;;;;34.09;100.00;97508.53;5132512;28;19928;-64
2022/06/20 07:47:56;;;;;;;;;;;;;;;34.10;100.00;97534.88;5132517;28;20313;-64
2022/06/20 07:50:24;;;;;;;;;;;;;;;33.79;100.00;97528.34;5132371;28;20477;-65
2022/06/20 07:52:54;;;;;;;;;;;;;;;33.75;100.00;97540.06;5132534;28;19932;-65
2022/06/20 07:55:22;;;;;;;;;;;;;;;33.54;100.00;97528.06;5132491;28;20516;-64
2022/06/20 07:57:51;;;;;;;;;;;;;;;33.02;100.00;97537.28;5132378;28;19953;-64
2022/06/20 08:00:18;;;;;;;;;;;;;;;32.94;100.00;97485.34;5132250;28;19927;-64
2022/06/20 08:02:48;;;;;;;;;;;;;;;33.72;100.00;97492.88;5132110;28;20045;-64
2022/06/20 08:05:16;;;;;;;;;;;;;;;33.80;100.00;97555.44;5132151;28;19947;-64
2022/06/20 08:07:46;;;;;;;;;;;;;;;34.16;100.00;97527.69;5132570;28;19935;-63
2022/06/20 08:10:15;;;;;;;;;;;;;;;34.18;100.00;97544.94;5132095;28;20127;-64
2022/06/20 08:12:43;;;;;;;;;;;;;;;34.63;100.00;97534.19;5131997;28;19928;-64
2022/06/20 08:15:12;;;;;;;;;;;;;;;33.81;100.00;97563.41;5132144;28;20297;-64
2022/06/20 08:17:38;;;;;;;;;;;;;;;34.35;100.00;97564.28;5131925;28;19927;-64
2022/06/20 08:20:04;;;;;;;;;;;;;;;34.55;100.00;97559.03;5131997;28;19927;-64
2022/06/20 08:22:34;;;;;;;;;;;;;;;34.65;100.00;97566.41;5131771;28;19928;-64
2022/06/20 08:25:02;;;;;;;;;;;;;;;34.66;100.00;97595.66;5132040;28;19938;-64
2022/06/20 08:27:34;;;;;;;;;;;;;;;34.56;100.00;97604.00;5131026;28;20201;-65
2022/06/20 08:30:03;;;;;;;;;;;;;;;34.45;100.00;97621.38;5131872;28;19931;-64
2022/06/20 08:32:33;;;;;;;;;;;;;;;34.20;100.00;97573.56;5131663;28;19933;-64
2022/06/20 08:35:02;;;;;;;;;;;;;;;33.67;100.00;97565.63;5130995;27;20450;-64
2022/06/20 08:37:33;;;;;;;;;;;;;;;33.81;100.00;97562.66;5131864;28;19954;-64
2022/06/20 08:40:02;;;;;;;;;;;;;;;33.94;100.00;97588.06;5131576;28;20026;-64
2022/06/20 08:42:37;;;;;;;;;;;;;;;33.74;100.00;97624.56;5131869;28;19927;-64
2022/06/20 08:45:16;;;;;;;;;;;;;;;34.08;100.00;97629.28;5131445;28;19942;-64
2022/06/20 08:47:52;;;;;;;;;;;;;;;33.43;100.00;97606.59;5131667;28;20413;-65
2022/06/20 08:50:31;;;;;;;;;;;;;;;33.36;100.00;97586.69;5131572;28;19927;-64
2022/06/20 08:53:15;;;;;;;;;;;;;;;32.95;100.00;97557.06;5131440;28;19927;-64
2022/06/20 08:55:46;;;;;;;;;;;;;;;32.78;100.00;97569.59;5130568;28;20306;-64
2022/06/20 08:58:17;;;;;;;;;;;;;;;32.60;100.00;97547.16;5131486;28;20018;-64
2022/06/20 09:00:46;;;;;;;;;;;;;;;32.44;100.00;97541.34;5131665;28;19927;-64
2022/06/20 09:03:28;;;;;;;;;;;;;;;32.70;100.00;97563.13;5131301;28;20313;-64
2022/06/20 09:06:01;;;;;;;;;;;;;;;32.87;100.00;97576.88;5131737;28;19927;-63
2022/06/20 09:08:37;;;;;;;;;;;;;;;33.32;100.00;97558.63;5131486;28;20010;-64
2022/06/20 09:11:14;;;;;;;;;;;;;;;33.73;100.00;97556.94;5131395;28;20038;-64
2022/06/20 09:13:51;;;;;;;;;;;;;;;34.34;100.00;97557.09;5131331;28;19979;-63
2022/06/20 09:16:24;;;;;;;;;;;;;;;34.63;100.00;97579.72;5131023;28;20313;-63
2022/06/20 09:18:59;;;;;;;;;;;;;;;34.53;100.00;97644.22;5131271;28;19939;-63
2022/06/20 09:21:30;;;;;;;;;;;;;;;34.62;100.00;97603.78;5131584;28;19927;-63
2022/06/20 09:24:02;;;;;;;;;;;;;;;34.62;100.00;97604.56;5131244;28;19934;-63
2022/06/20 09:26:31;;;;;;;;;;;;;;;34.68;100.00;97601.53;5130971;28;20033;-63
2022/06/20 09:29:04;;;;;;;;;;;;;;;34.59;100.00;97597.19;5131347;28;19935;-63
2022/06/20 09:31:51;;;;;;;;;;;;;;;34.17;100.00;97596.69;5131167;28;19927;-63
2022/06/20 09:34:27;;;;;;;;;;;;;;;34.20;100.00;97598.41;5130991;28;20355;-59
2022/06/20 09:37:05;;;;;;;;;;;;;;;34.14;100.00;97635.56;5131190;28;19934;-57
2022/06/20 09:39:40;;;;;;;;;;;;;;;34.43;100.00;97595.59;5130764;28;19927;-60
2022/06/20 09:42:10;;;;;;;;;;;;;;;33.48;100.00;97587.88;5131105;28;19927;-61
2022/06/20 09:44:42;;;;;;;;;;;;;;;33.43;100.00;97588.81;5130897;28;19927;-62
2022/06/20 09:47:16;;;;;;;;;;;;;;;33.53;100.00;97572.03;5133230;27;20235;-63
2022/06/20 09:49:47;;;;;;;;;;;;;;;33.63;100.00;97590.81;5134541;28;19928;-62
2022/06/20 09:52:20;;;;;;;;;;;;;;;33.11;100.00;97578.56;5134827;28;19928;-62
2022/06/20 09:54:52;;;;;;;;;;;;;;;32.58;100.00;97548.47;5134835;28;20273;-55
2022/06/20 09:57:23;;;;;;;;;;;;;;;33.05;100.00;97577.97;5134291;28;19927;-60
2022/06/20 09:59:55;;;;;;;;;;;;;;;33.20;100.00;97575.22;5134587;28;19942;-60
2022/06/20 10:02:26;;;;;;;;;;;;;;;32.85;100.00;97517.06;5134343;28;19953;-60
2022/06/20 10:04:57;;;;;;;;;;;;;;;32.57;100.00;97500.81;5134569;28;20393;-61
2022/06/20 10:07:29;;;;;;;;;;;;;;;32.51;100.00;97515.13;5134248;28;19971;-59
2022/06/20 10:09:59;;;;;;;;;;;;;;;32.47;100.00;97526.06;5134145;28;19927;-56
2022/06/20 10:12:31;;;;;;;;;;;;;;;32.83;100.00;97491.34;5134023;28;19953;-62
2022/06/20 10:15:02;;;;;;;;;;;;;;;32.76;100.00;97526.09;5134020;28;19927;-62
2022/06/20 10:17:32;;;;;;;;;;;;;;;33.09;100.00;97490.38;5134118;28;19978;-62
2022/06/20 10:20:06;;;;;;;;;;;;;;;32.52;100.00;97471.28;5133962;28;19933;-62
2022/06/20 10:22:34;;;;;;;;;;;;;;;31.05;100.00;97446.88;5134275;28;20018;-62
2022/06/20 10:25:09;;;;;;;;;;;;;;;31.17;100.00;97368.94;5133658;28;19932;-62
2022/06/20 10:27:41;;;;;;;;;;;;;;;31.29;100.00;97403.38;5134088;28;19928;-61
2022/06/20 10:30:09;;;;;;;;;;;;;;;31.17;100.00;97343.44;5134100;28;19980;-61
2022/06/20 10:32:51;;;;;;;;;;;;;;;31.14;100.00;97342.47;5133823;28;20351;-62
2022/06/20 10:35:20;;;;;;;;;;;;;;;30.74;100.00;97321.25;5133968;28;19927;-60
2022/06/20 10:37:53;;;;;;;;;;;;;;;30.16;100.00;97267.16;5133800;28;19928;-62
2022/06/20 10:40:24;;;;;;;;;;;;;;;29.73;100.00;97240.00;5133756;28;20394;-60
2022/06/20 10:42:55;;;;;;;;;;;;;;;29.36;100.00;97232.44;5133523;28;19931;-60
2022/06/20 10:45:31;;;;;;;;;;;;;;;29.40;100.00;97230.06;5133403;28;19934;-59
2022/06/20 10:48:06;;;;;;;;;;;;;;;29.19;100.00;97207.34;5133246;28;19978;-59
2022/06/20 10:50:36;;;;;;;;;;;;;;;29.26;100.00;97209.53;5133456;28;20420;-62
2022/06/20 10:53:10;;;;;;;;;;;;;;;29.01;100.00;97192.00;5133630;28;19934;-61
2022/06/20 10:55:43;;;;;;;;;;;;;;;29.52;100.00;97227.78;5133252;28;19951;-60
2022/06/20 10:58:15;;;;;;;;;;;;;;;30.07;100.00;97233.69;5132725;27;20030;-61
2022/06/20 11:00:42;;;;;;;;;;;;;;;29.78;100.00;97229.91;5133171;28;19927;-61
2022/06/20 11:03:19;;;;;;;;;;;;;;;29.23;100.00;97230.34;5133418;28;19943;-61
2022/06/20 11:05:50;;;;;;;;;;;;;;;28.84;100.00;97242.25;5133058;28;19928;-59
2022/06/20 11:08:24;;;;;;;;;;;;;;;28.77;100.00;97260.53;5133165;28;19980;-61
2022/06/20 11:11:05;;;;;;;;;;;;;;;28.51;100.00;97198.41;5133053;28;19932;-60
2022/06/20 11:13:34;;;;;;;;;;;;;;;28.22;100.00;97183.91;5133050;28;20313;-60
2022/06/20 11:16:06;;;;;;;;;;;;;;;28.14;100.00;97197.84;5132823;28;20408;-60
2022/06/20 11:18:46;;;;;;;;;;;;;;;28.68;100.00;97173.53;5133487;28;20026;-61
2022/06/20 11:21:18;;;;;;;;;;;;;;;29.08;100.00;97213.16;5133172;28;19928;-60
2022/06/20 11:23:51;;;;;;;;;;;;;;;29.29;100.00;97262.06;5132864;28;20027;-61
2022/06/20 11:26:22;;;;;;;;;;;;;;;29.36;100.00;97263.50;5133005;28;20348;-58
2022/06/20 11:28:59;;;;;;;;;;;;;;;29.70;100.00;97231.88;5132950;28;20413;-62
2022/06/20 11:31:32;;;;;;;;;;;;;;;29.63;100.00;97232.50;5132888;28;20026;-60
2022/06/20 11:34:04;;;;;;;;;;;;;;;29.20;100.00;97293.50;5132651;28;19933;-59
2022/06/20 11:36:35;;;;;;;;;;;;;;;29.13;100.00;97195.41;5132880;28;19982;-60
2022/06/20 11:39:07;;;;;;;;;;;;;;;28.94;100.00;97186.19;5132703;28;19934;-62
2022/06/20 11:41:37;;;;;;;;;;;;;;;29.04;100.00;97227.59;5132737;28;20022;-58
2022/06/20 11:44:18;;;;;;;;;;;;;;;29.22;100.00;97189.31;5132528;28;20014;-61
2022/06/20 11:47:02;;;;;;;;;;;;;;;29.17;100.00;97251.50;5128426;28;19927;-58
2022/06/20 11:49:36;;;;;;;;;;;;;;;28.95;100.00;97215.91;5132905;28;20054;-58
2022/06/20 11:52:06;;;;;;;;;;;;;;;28.87;100.00;97145.28;5132528;28;19928;-60
2022/06/20 11:54:36;;;;;;;;;;;;;;;28.23;100.00;97160.09;5132306;28;19947;-59
2022/06/20 11:57:07;;;;;;;;;;;;;;;28.21;100.00;97136.56;5132607;28;19934;-59
2022/06/20 11:59:40;;;;;;;;;;;;;;;27.89;100.00;97129.56;5132322;28;19934;-59
2022/06/20 12:02:16;;;;;;;;;;;;;;;28.11;100.00;97055.25;5132434;28;20301;-54
2022/06/20 12:04:46;;;;;;;;;;;;;;;28.09;100.00;97046.59;5132142;28;19981;-60
2022/06/20 12:07:17;;;;;;;;;;;;;;;28.05;100.00;97081.97;5132193;28;19927;-57
2022/06/20 12:09:48;;;;;;;;;;;;;;;28.20;100.00;97157.56;5132358;27;19927;-59
2022/06/20 12:12:26;;;;;;;;;;;;;;;28.23;100.00;97100.16;5132094;28;19927;-56
2022/06/20 12:15:00;;;;;;;;;;;;;;;28.44;100.00;97081.41;5132263;28;19933;-59
2022/06/20 12:17:30;;;;;;;;;;;;;;;28.27;100.00;97058.34;5132025;28;19928;-61
2022/06/20 12:25:46;;;;;;;;;;;;;;;27.49;100.00;97049.72;5131966;28;19975;-60
2022/06/20 12:28:18;;;;;;;;;;;;;;;27.52;100.00;97022.53;5131932;28;19931;-60
2022/06/20 12:30:44;;;;;;;;;;;;;;;27.45;100.00;97018.28;5131726;28;20339;-59
2022/06/20 12:33:11;;;;;;;;;;;;;;;27.23;100.00;96994.03;5131815;28;19973;-59
2022/06/20 12:35:40;;;;;;;;;;;;;;;27.15;100.00;96991.03;5131684;28;19927;-56
2022/06/20 12:38:12;;;;;;;;;;;;;;;27.33;100.00;96997.22;5131933;28;19931;-57
2022/06/20 12:40:41;;;;;;;;;;;;;;;27.61;100.00;96989.16;5132055;28;19971;-52
2022/06/20 12:43:11;;;;;;;;;;;;;;;27.88;100.00;96989.28;5131878;28;19928;-58
2022/06/20 12:45:57;;;;;;;;;;;;;;;27.64;100.00;97033.13;5132047;28;19979;-61
2022/06/20 12:48:33;;;;;;;;;;;;;;;27.63;100.00;97039.28;5123144;28;19927;-53
2022/06/20 12:51:03;;;;;;;;;;;;;;;27.06;100.00;97033.56;5131811;28;20501;-59
2022/06/20 12:53:37;;;;;;;;;;;;;;;26.76;100.00;96980.25;5131521;28;20298;-59
2022/06/20 12:56:09;;;;;;;;;;;;;;;26.99;100.00;96967.44;5131569;28;19934;-64
2022/06/20 12:58:43;;;;;;;;;;;;;;;26.33;100.00;96977.31;5131643;28;20330;-64
2022/06/20 13:01:12;;;;;;;;;;;;;;;26.34;100.00;96988.03;5131454;28;19928;-64
2022/06/20 13:03:58;;;;;;;;;;;;;;;26.38;100.00;96943.53;5131589;28;20071;-63